Portada
METAR-TAF:

METAR-TAF

Aeroports :

Pontoise, França

latitud: 49-05-48N, longitud: 002-02-27E, altitud: 99 m

Observació

L'informe es va fer fa 38 minuts, a les 23:30 UTC
Vent 9 kt del Nord-Est
Temperatura 8°C
Humitat 76%
Pressió 1020 hPa
Visibilitat 10 km o més
sense núvols per sota de 1500 mi sense presència de cumulonimbus.

METAR: LFPT 212330Z AUTO 04009KT CAVOK 08/04 Q1020

Hora: 02:08 (00:08 UTC)


TAF: manca

Observacions i pronòstics meteorològics de més de 4000 aeroports (METAR i TAF).

Les estacions disponibles són els punts grocs i vermells al mapa.

Posi el ratolí al punt desitjat per veure el nom de l'estació.

Feu clic per veure les observacions i els pronòstics meteorològics.

Per canviar el mapa: feu clic els botons verds amb una creu de color negre per apropar; al botó verd amb un guió per allunyar la imatge; o en les fletxes verdes per a mapes adjacents.


METAR-TAF: